OZ1IEP-5 Jaegerspris DK current weather conditions

sailwx.info

Wind from 297 at 6 knots gusting 18

Air temperature 13.3° C
Dewpoint 9.0° C

Last reported at 2019-Sep-18 11:00 UTC.
Time now 2019-Sep-18 11:40 UTC

Location: N 55°51' E 011°59'.
View on Google Maps.

See reports from other nearby stations

  
Tides and Currents Weather Stations Pressure Air Temp Water Temp Dewpoint Dewpoint Depression Visibility Wind Speed Wind Dir Waves Ship Positions
date/time (UTC)wind fromknots sea level pressurealtimeterstation pressurevisibilityair tempwater tempwave heightnotes
2019-Sep-18 11:00 297 6 gusting 18 13.3
2019-Sep-18 10:50 303 7 gusting 19 13.3
2019-Sep-18 10:40 314 10 gusting 17 13.3
2019-Sep-18 10:30 293 8 gusting 19 13.3
2019-Sep-18 10:20 314 8 gusting 18 13.3
2019-Sep-18 10:10 301 10 gusting 19 13.3
2019-Sep-18 10:00 311 12 gusting 17 13.3
2019-Sep-18 09:50 304 11 gusting 19 12.8
2019-Sep-18 09:40 294 11 gusting 20 12.8
2019-Sep-18 09:30 310 14 gusting 19 12.8
2019-Sep-18 09:20 298 8 gusting 20 12.8
2019-Sep-18 09:10 301 11 gusting 18 12.8
2019-Sep-18 09:00 310 13 gusting 19 12.8
2019-Sep-18 08:50 303 13 gusting 21 12.2
2019-Sep-18 08:40 295 10 gusting 19 12.2
2019-Sep-18 08:30 287 9 gusting 21 12.2
2019-Sep-18 08:20 290 7 gusting 17 12.2
2019-Sep-18 08:10 308 13 gusting 21 12.2
2019-Sep-18 08:00 293 8 gusting 19 12.2
2019-Sep-18 07:50 305 13 gusting 20 12.2
2019-Sep-18 07:40 303 11 gusting 20 12.2
2019-Sep-18 07:30 310 10 gusting 19 11.7
2019-Sep-18 07:20 295 10 gusting 20 11.7
2019-Sep-18 07:10 306 12 gusting 17 11.7
2019-Sep-18 07:00 299 8 gusting 19 11.7
2019-Sep-18 06:50 297 9 gusting 17 11.7
2019-Sep-18 06:40 299 11 gusting 19 11.7
2019-Sep-18 06:30 314 12 gusting 20 11.7
2019-Sep-18 06:20 312 11 gusting 18 11.1
2019-Sep-18 06:10 317 13 gusting 19 11.1
2019-Sep-18 06:00 314 12 gusting 18 11.1
2019-Sep-18 05:50 309 13 gusting 20 11.1
2019-Sep-18 05:40 309 13 gusting 19 11.1
2019-Sep-18 05:30 308 12 gusting 19 11.1
2019-Sep-18 05:20 309 12 gusting 17 10.6
2019-Sep-18 05:10 291 6 gusting 18 10.6
2019-Sep-18 05:00 302 11 gusting 15 11.1
2019-Sep-18 04:50 313 11 gusting 18 11.1
2019-Sep-18 04:40 314 12 gusting 19 11.1
2019-Sep-18 04:30 310 14 gusting 21 11.1
2019-Sep-18 04:20 307 10 gusting 19 11.1
2019-Sep-18 04:10 299 8 gusting 19 11.1
2019-Sep-18 04:00 309 14 gusting 19 11.1
2019-Sep-18 03:50 311 13 gusting 19 11.1
2019-Sep-18 03:40 309 13 gusting 19 11.1
2019-Sep-18 03:30 305 13 gusting 20 11.1
2019-Sep-18 03:20 315 11 gusting 19 11.1
2019-Sep-18 03:10 305 12 gusting 20 11.1
2019-Sep-18 03:00 309 13 gusting 20 11.1
2019-Sep-18 02:50 311 10 gusting 19 11.1
2019-Sep-18 02:40 307 13 gusting 20 11.1
2019-Sep-18 02:30 307 10 gusting 18 11.1
2019-Sep-18 02:20 297 10 gusting 19 11.1
2019-Sep-18 02:10 306 11 gusting 20 11.1
2019-Sep-18 02:00 301 12 gusting 17 11.1
2019-Sep-18 01:50 298 11 gusting 17 11.1
2019-Sep-18 01:40 299 8 gusting 17 11.1
2019-Sep-18 01:30 291 6 gusting 14 11.1
2019-Sep-18 01:20 305 8 gusting 17 11.1
2019-Sep-18 01:10 299 6 gusting 17 11.1
2019-Sep-18 01:00 300 8 gusting 17 11.1
2019-Sep-18 00:50 307 11 gusting 19 11.1
2019-Sep-18 00:40 299 10 gusting 19 11.1
2019-Sep-18 00:30 310 10 gusting 14 11.1
2019-Sep-18 00:20 310 10 gusting 17 11.1
2019-Sep-18 00:10 292 6 gusting 17 11.1
2019-Sep-18 00:00 299 6 gusting 13 10.6
2019-Sep-17 23:50 307 6 gusting 13 10.6
2019-Sep-17 23:40 301 6 gusting 13 10.0
2019-Sep-17 23:30 280 4 gusting 10 10.0
2019-Sep-17 23:20 271 2 gusting 7 9.4
2019-Sep-17 23:10 268 1 gusting 4 9.4
2019-Sep-17 23:00 300 9.4
2019-Sep-17 22:50 314 5 gusting 15 10.0
2019-Sep-17 22:40 318 11 gusting 18 10.6
2019-Sep-17 22:30 300 8 gusting 17 10.6
2019-Sep-17 22:20 288 5 gusting 10 10.0
2019-Sep-17 22:10 318 7 gusting 12 10.6
2019-Sep-17 22:00 325 8 gusting 14 10.6
2019-Sep-17 21:50 329 9 gusting 17 10.6
2019-Sep-17 21:40 329 8 gusting 13 10.0
2019-Sep-17 21:30 325 7 gusting 12 9.4
2019-Sep-17 21:20 322 6 gusting 10 9.4
2019-Sep-17 21:10 331 8 gusting 13 9.4
2019-Sep-17 21:00 326 8 gusting 13 9.4
2019-Sep-17 20:50 337 9 gusting 18 10.0
2019-Sep-17 20:40 338 13 gusting 21 9.4
2019-Sep-17 20:30 337 13 gusting 19 9.4
2019-Sep-17 20:20 341 13 gusting 22 9.4
2019-Sep-17 20:10 358 14 gusting 21 9.4
2019-Sep-17 20:00 357 17 gusting 26 10.0
2019-Sep-17 19:50 352 12 gusting 22 10.6
2019-Sep-17 19:40 353 10 gusting 15 10.6
2019-Sep-17 19:30 356 13 gusting 21 11.1
2019-Sep-17 19:20 325 13 gusting 19 11.1
2019-Sep-17 19:10 319 16 gusting 25 10.6
2019-Sep-17 19:00 318 19 gusting 26 10.6
2019-Sep-17 18:50 345 19 gusting 30 11.1
2019-Sep-17 18:40 332 22 gusting 33 10.6
2019-Sep-17 18:30 326 21 gusting 28 10.6
2019-Sep-17 18:20 313 17 gusting 27 10.0
2019-Sep-17 18:10 323 19 gusting 26 10.0
2019-Sep-17 18:00 335 17 gusting 26 10.6
2019-Sep-17 17:50 332 17 gusting 22 10.6
2019-Sep-17 17:40 314 17 gusting 28 10.0
2019-Sep-17 17:30 317 19 gusting 28 9.4
2019-Sep-17 17:20 339 18 gusting 30 9.4
2019-Sep-17 17:10 347 18 gusting 26 10.6
2019-Sep-17 17:00 338 21 gusting 30 11.1
2019-Sep-17 16:50 313 18 gusting 26 11.1
2019-Sep-17 16:40 314 17 gusting 27 11.1
2019-Sep-17 16:30 305 21 gusting 35 11.1
2019-Sep-17 16:20 309 19 gusting 30 11.7
2019-Sep-17 16:10 308 18 gusting 26 11.7
2019-Sep-17 16:00 315 18 gusting 30 12.2
2019-Sep-17 15:50 311 18 gusting 28 12.2
2019-Sep-17 15:40 310 17 gusting 27 12.2
2019-Sep-17 15:30 315 22 gusting 32 12.2
2019-Sep-17 15:20 303 19 gusting 30 12.2
2019-Sep-17 15:10 319 22 gusting 31 12.2
2019-Sep-17 15:00 309 18 gusting 31 12.2
2019-Sep-17 14:50 315 18 gusting 34 12.2
2019-Sep-17 14:40 312 20 gusting 33 12.2
2019-Sep-17 14:30 303 19 gusting 33 12.2
2019-Sep-17 14:20 311 21 gusting 33 11.7
2019-Sep-17 14:10 307 15 gusting 31 11.7
2019-Sep-17 14:00 308 19 gusting 34 11.1
2019-Sep-17 13:50 306 14 gusting 26 10.0
2019-Sep-17 13:40 288 13 gusting 27 10.0
2019-Sep-17 13:30 313 13 gusting 32 10.6
2019-Sep-17 13:20 290 14 gusting 28 12.2
2019-Sep-17 13:10 300 11 gusting 26 12.8
2019-Sep-17 13:00 284 13 gusting 25 12.8
2019-Sep-17 12:50 284 9 gusting 26 12.2
2019-Sep-17 12:40 291 13 gusting 26 12.8
2019-Sep-17 12:30 284 11 gusting 25 12.2
2019-Sep-17 12:20 286 7 gusting 19 12.2
2019-Sep-17 12:10 290 11 gusting 22 12.2
2019-Sep-17 12:00 273 10 gusting 20 11.7
2019-Sep-17 11:50 281 12 gusting 20 11.1
2019-Sep-17 11:40 281 8 gusting 18 11.7
2019-Sep-17 11:30 281 8 gusting 21 11.1
2019-Sep-17 11:20 282 10 gusting 21 11.1
2019-Sep-17 11:10 275 9 gusting 19 11.1
2019-Sep-17 11:00 290 10 gusting 19 11.1
2019-Sep-17 10:50 271 8 gusting 19 10.0
2019-Sep-17 10:40 271 11 gusting 22 11.1
2019-Sep-17 10:30 282 10 gusting 22 11.1
2019-Sep-17 10:20 276 7 gusting 14 11.7
2019-Sep-17 10:10 274 6 gusting 17 11.1
2019-Sep-17 10:00 269 8 gusting 17 10.0
2019-Sep-17 09:50 274 6 gusting 17 9.4
2019-Sep-17 09:40 263 6 gusting 14 8.9
2019-Sep-17 09:30 257 8 gusting 17 8.9
2019-Sep-17 09:20 270 8 gusting 19 9.4
2019-Sep-17 09:10 276 11 gusting 19 11.1
2019-Sep-17 09:00 283 11 gusting 22 10.0
2019-Sep-17 08:50 276 9 gusting 19 10.0
2019-Sep-17 08:40 270 8 gusting 17 10.0
2019-Sep-17 08:30 275 5 gusting 15 9.4
2019-Sep-17 08:20 300 14 gusting 24 8.9
2019-Sep-17 08:10 308 20 gusting 34 8.9
2019-Sep-17 08:00 285 11 gusting 21 10.0
2019-Sep-17 07:50 281 6 gusting 18 10.0
2019-Sep-17 07:40 304 11 gusting 21 9.4
2019-Sep-17 07:30 305 12 gusting 22 8.9
2019-Sep-17 07:20 283 12 gusting 21 10.6
2019-Sep-17 07:10 292 9 gusting 18 11.7
2019-Sep-17 07:00 277 10 gusting 19 11.1
2019-Sep-17 06:50 281 8 gusting 19 11.1
2019-Sep-17 06:40 289 11 gusting 24 11.1
2019-Sep-17 06:30 278 11 gusting 19 11.1
2019-Sep-17 06:20 280 8 gusting 19 11.1
2019-Sep-17 06:10 287 7 gusting 19 10.6
2019-Sep-17 06:00 276 8 gusting 22 10.6
2019-Sep-17 05:50 282 11 gusting 18 10.6
2019-Sep-17 05:40 282 10 gusting 17 10.6
2019-Sep-17 05:30 279 8 gusting 17 10.6
2019-Sep-17 05:20 272 6 gusting 18 10.6
2019-Sep-17 05:10 284 7 gusting 15 10.6
2019-Sep-17 05:00 290 7 gusting 15 10.6
2019-Sep-17 04:50 278 7 gusting 19 10.6
2019-Sep-17 04:40 286 8 gusting 18 10.6
2019-Sep-17 04:30 268 9 gusting 19 11.1
2019-Sep-17 04:20 305 14 gusting 27 11.1
2019-Sep-17 04:10 278 8 gusting 18 11.7
2019-Sep-17 04:00 283 11 gusting 21 11.7
2019-Sep-17 03:50 280 7 gusting 14 11.7
2019-Sep-17 03:40 261 6 gusting 14 11.7
2019-Sep-17 03:30 265 7 gusting 15 11.7
2019-Sep-17 03:20 268 7 gusting 17 11.7
2019-Sep-17 03:10 273 8 gusting 17 11.7
2019-Sep-17 03:00 279 5 gusting 18 11.7
2019-Sep-17 02:50 255 6 gusting 17 11.7
2019-Sep-17 02:40 271 6 gusting 12 11.7
2019-Sep-17 02:30 262 6 gusting 17 11.7
2019-Sep-17 02:20 263 5 gusting 14 11.1
2019-Sep-17 02:10 267 7 gusting 14 11.7
2019-Sep-17 02:00 263 6 gusting 14 11.7
2019-Sep-17 01:50 286 5 gusting 18 11.7
2019-Sep-17 01:40 258 8 gusting 17 11.7
2019-Sep-17 01:30 255 6 gusting 15 11.7
2019-Sep-17 01:20 255 8 gusting 17 11.7
2019-Sep-17 01:10 253 5 gusting 15 11.7
2019-Sep-17 01:00 262 6 gusting 17 11.7
2019-Sep-17 00:50 262 7 gusting 14 11.7
2019-Sep-17 00:40 257 6 gusting 13 11.7
2019-Sep-17 00:30 258 7 gusting 14 11.7
2019-Sep-17 00:20 264 6 gusting 12 11.7
2019-Sep-17 00:10 261 5 gusting 14 11.7
2019-Sep-17 00:00 258 6 gusting 13 11.7
2019-Sep-16 23:50 265 6 gusting 15 11.7
2019-Sep-16 23:40 261 5 gusting 12 11.7
2019-Sep-16 23:30 256 5 gusting 13 11.7
2019-Sep-16 23:20 262 7 gusting 13 11.7
2019-Sep-16 23:10 268 4 gusting 12 11.7
2019-Sep-16 23:00 262 5 gusting 12 11.7
2019-Sep-16 22:50 267 5 gusting 14 11.7
2019-Sep-16 22:40 278 6 gusting 15 11.7
2019-Sep-16 22:30 276 6 gusting 14 11.7
2019-Sep-16 22:20 258 6 gusting 13 11.7
2019-Sep-16 22:10 266 5 gusting 13 11.7
2019-Sep-16 22:00 264 6 gusting 17 12.2
2019-Sep-16 21:50 275 6 gusting 15 12.2
2019-Sep-16 21:40 275 4 gusting 14 12.2
2019-Sep-16 21:30 259 6 gusting 14 12.2
2019-Sep-16 21:20 277 6 gusting 14 12.2
2019-Sep-16 21:10 285 6 gusting 13 12.2
2019-Sep-16 21:00 276 6 gusting 14 12.2
2019-Sep-16 20:50 289 7 gusting 14 12.2
2019-Sep-16 20:40 285 6 gusting 17 12.2
2019-Sep-16 20:30 284 6 gusting 15 12.2
2019-Sep-16 20:20 287 6 gusting 15 12.2
2019-Sep-16 20:10 286 7 gusting 17 12.2
2019-Sep-16 20:00 278 7 gusting 17 12.2
2019-Sep-16 19:50 283 6 gusting 17 12.8
2019-Sep-16 19:40 286 8 gusting 14 12.8
2019-Sep-16 19:30 291 6 gusting 17 12.8
2019-Sep-16 19:20 287 6 gusting 19 12.8
2019-Sep-16 19:10 279 7 gusting 19 12.8
2019-Sep-16 19:00 282 6 gusting 15 12.8
2019-Sep-16 18:50 287 6 gusting 18 12.8
2019-Sep-16 18:40 281 5 gusting 14 12.8
2019-Sep-16 18:30 280 6 gusting 14 12.8
2019-Sep-16 18:20 287 7 gusting 17 12.8
2019-Sep-16 18:10 286 8 gusting 20 12.8
2019-Sep-16 18:00 292 7 gusting 17 12.8
2019-Sep-16 17:50 280 7 gusting 15 12.8
2019-Sep-16 17:40 292 8 gusting 17 13.3
2019-Sep-16 17:30 289 6 gusting 15 13.3
2019-Sep-16 17:20 292 7 gusting 18 13.3
2019-Sep-16 17:10 284 8 gusting 20 13.3
2019-Sep-16 17:00 287 7 gusting 17 13.3
2019-Sep-16 16:50 286 6 gusting 17 13.9
2019-Sep-16 16:40 284 7 gusting 18 13.9
2019-Sep-16 16:30 284 6 gusting 14 13.9
2019-Sep-16 16:20 280 6 gusting 13 14.4
2019-Sep-16 16:10 280 6 gusting 14 14.4
2019-Sep-16 16:00 287 6 gusting 18 14.4
2019-Sep-16 15:50 291 8 gusting 17 15.0
2019-Sep-16 15:40 295 10 gusting 21 15.0
2019-Sep-16 15:30 291 7 gusting 19 15.0
2019-Sep-16 15:20 281 10 gusting 19 15.0
2019-Sep-16 15:10 279 11 gusting 20 15.0
2019-Sep-16 15:00 280 7 gusting 20 15.0
2019-Sep-16 14:50 282 9 gusting 15 15.6
2019-Sep-16 14:40 278 6 gusting 17 15.6
2019-Sep-16 14:30 286 11 gusting 20 15.6
2019-Sep-16 14:20 289 8 gusting 17 15.6
2019-Sep-16 14:10 289 10 gusting 21 15.6
2019-Sep-16 14:00 283 9 gusting 17 15.0
2019-Sep-16 13:50 284 8 gusting 19 15.6
2019-Sep-16 13:40 286 6 gusting 15 15.6
2019-Sep-16 13:30 281 7 gusting 20 15.6
2019-Sep-16 13:20 278 10 gusting 19 15.6
2019-Sep-16 13:10 291 10 gusting 19 15.6
2019-Sep-16 13:00 302 10 gusting 18 14.4
2019-Sep-16 12:50 292 9 gusting 24 15.0
2019-Sep-16 12:40 307 15 gusting 24 15.0
2019-Sep-16 12:30 302 8 gusting 20 15.0
2019-Sep-16 12:20 291 8 gusting 21 15.6
2019-Sep-16 12:10 286 8 gusting 19 15.0
2019-Sep-16 12:00 299 8 gusting 22 15.6
2019-Sep-16 11:50 290 11 gusting 19 15.0
2019-Sep-16 11:40 298 10 gusting 19 15.0
2019-Sep-16 11:30 285 9 gusting 22 14.4
2019-Sep-16 11:20 292 8 gusting 20 14.4
2019-Sep-16 11:10 296 8 gusting 21 15.0
2019-Sep-16 11:00 305 7 gusting 21 15.0